sensor_id;sensor_type;location;lat;lon;timestamp;temperature;humidity
7366;DHT22;3723;52.220;8.792;2024-03-02T00:01:11;6.10;1.00
7366;DHT22;3723;52.220;8.792;2024-03-02T00:03:38;6.30;1.00
7366;DHT22;3723;52.220;8.792;2024-03-02T00:06:09;6.30;1.00
7366;DHT22;3723;52.220;8.792;2024-03-02T00:08:36;6.30;1.00
7366;DHT22;3723;52.220;8.792;2024-03-02T00:11:03;6.30;1.00
7366;DHT22;3723;52.220;8.792;2024-03-02T00:13:30;6.20;1.00
7366;DHT22;3723;52.220;8.792;2024-03-02T00:15:57;6.10;99.90
7366;DHT22;3723;52.220;8.792;2024-03-02T00:18:30;6.00;99.90
7366;DHT22;3723;52.220;8.792;2024-03-02T00:20:58;5.80;99.90
7366;DHT22;3723;52.220;8.792;2024-03-02T00:23:28;5.80;99.90
7366;DHT22;3723;52.220;8.792;2024-03-02T00:25:55;5.70;1.00
7366;DHT22;3723;52.220;8.792;2024-03-02T00:28:24;5.70;99.90
7366;DHT22;3723;52.220;8.792;2024-03-02T00:30:55;5.60;99.90
7366;DHT22;3723;52.220;8.792;2024-03-02T00:33:27;5.60;1.00
7366;DHT22;3723;52.220;8.792;2024-03-02T00:35:56;5.70;1.00
7366;DHT22;3723;52.220;8.792;2024-03-02T00:38:25;5.60;1.00
7366;DHT22;3723;52.220;8.792;2024-03-02T00:40:52;5.60;1.00
7366;DHT22;3723;52.220;8.792;2024-03-02T00:43:44;5.60;1.00
7366;DHT22;3723;52.220;8.792;2024-03-02T00:46:12;5.50;1.00
7366;DHT22;3723;52.220;8.792;2024-03-02T00:48:51;5.50;1.00
7366;DHT22;3723;52.220;8.792;2024-03-02T00:51:21;5.40;1.00
7366;DHT22;3723;52.220;8.792;2024-03-02T00:53:49;5.40;1.00
7366;DHT22;3723;52.220;8.792;2024-03-02T00:56:16;5.50;1.00
7366;DHT22;3723;52.220;8.792;2024-03-02T00:58:43;5.50;1.00
7366;DHT22;3723;52.220;8.792;2024-03-02T01:01:12;5.40;1.00
7366;DHT22;3723;52.220;8.792;2024-03-02T01:03:41;5.40;1.00
7366;DHT22;3723;52.220;8.792;2024-03-02T01:06:08;5.50;1.00
7366;DHT22;3723;52.220;8.792;2024-03-02T01:08:35;5.50;1.00
7366;DHT22;3723;52.220;8.792;2024-03-02T01:11:03;5.40;1.00
7366;DHT22;3723;52.220;8.792;2024-03-02T01:13:30;5.30;1.00
7366;DHT22;3723;52.220;8.792;2024-03-02T01:15:57;5.20;1.00
7366;DHT22;3723;52.220;8.792;2024-03-02T01:18:24;5.10;1.00
7366;DHT22;3723;52.220;8.792;2024-03-02T01:20:53;5.00;1.00
7366;DHT22;3723;52.220;8.792;2024-03-02T01:23:21;5.00;1.00
7366;DHT22;3723;52.220;8.792;2024-03-02T01:25:49;5.10;1.00
7366;DHT22;3723;52.220;8.792;2024-03-02T01:28:16;5.10;1.00
7366;DHT22;3723;52.220;8.792;2024-03-02T01:30:43;5.10;1.00
7366;DHT22;3723;52.220;8.792;2024-03-02T01:33:10;5.20;1.00
7366;DHT22;3723;52.220;8.792;2024-03-02T01:35:37;5.20;1.00
7366;DHT22;3723;52.220;8.792;2024-03-02T01:38:05;5.20;1.00
7366;DHT22;3723;52.220;8.792;2024-03-02T01:40:33;5.20;1.00
7366;DHT22;3723;52.220;8.792;2024-03-02T01:43:00;5.20;1.00
7366;DHT22;3723;52.220;8.792;2024-03-02T01:45:28;5.20;1.00
7366;DHT22;3723;52.220;8.792;2024-03-02T01:47:54;5.10;1.00
7366;DHT22;3723;52.220;8.792;2024-03-02T01:50:26;5.10;1.00
7366;DHT22;3723;52.220;8.792;2024-03-02T01:52:54;5.10;1.00
7366;DHT22;3723;52.220;8.792;2024-03-02T01:55:23;5.10;1.00
7366;DHT22;3723;52.220;8.792;2024-03-02T01:57:49;5.10;1.00
7366;DHT22;3723;52.220;8.792;2024-03-02T02:00:17;5.10;1.00
7366;DHT22;3723;52.220;8.792;2024-03-02T02:02:44;5.10;1.00
7366;DHT22;3723;52.220;8.792;2024-03-02T02:05:11;5.10;1.00
7366;DHT22;3723;52.220;8.792;2024-03-02T02:07:40;5.20;1.00
7366;DHT22;3723;52.220;8.792;2024-03-02T02:10:07;5.20;1.00
7366;DHT22;3723;52.220;8.792;2024-03-02T02:12:36;5.30;1.00
7366;DHT22;3723;52.220;8.792;2024-03-02T02:15:03;5.30;1.00
7366;DHT22;3723;52.220;8.792;2024-03-02T02:17:31;5.30;1.00
7366;DHT22;3723;52.220;8.792;2024-03-02T02:19:58;5.30;1.00
7366;DHT22;3723;52.220;8.792;2024-03-02T02:22:26;5.30;1.00
7366;DHT22;3723;52.220;8.792;2024-03-02T02:24:53;5.30;1.00
7366;DHT22;3723;52.220;8.792;2024-03-02T02:27:20;5.30;1.00
7366;DHT22;3723;52.220;8.792;2024-03-02T02:29:47;5.30;1.00
7366;DHT22;3723;52.220;8.792;2024-03-02T02:32:13;5.20;1.00
7366;DHT22;3723;52.220;8.792;2024-03-02T02:34:40;5.30;1.00
7366;DHT22;3723;52.220;8.792;2024-03-02T02:37:07;5.20;1.00
7366;DHT22;3723;52.220;8.792;2024-03-02T02:39:35;5.10;1.00
7366;DHT22;3723;52.220;8.792;2024-03-02T02:42:02;5.10;1.00
7366;DHT22;3723;52.220;8.792;2024-03-02T02:44:30;5.10;1.00
7366;DHT22;3723;52.220;8.792;2024-03-02T02:46:57;5.10;1.00
7366;DHT22;3723;52.220;8.792;2024-03-02T02:49:23;5.20;1.00
7366;DHT22;3723;52.220;8.792;2024-03-02T02:51:50;5.10;1.00
7366;DHT22;3723;52.220;8.792;2024-03-02T02:54:19;5.10;1.00
7366;DHT22;3723;52.220;8.792;2024-03-02T02:56:48;5.20;1.00
7366;DHT22;3723;52.220;8.792;2024-03-02T02:59:15;5.20;1.00
7366;DHT22;3723;52.220;8.792;2024-03-02T03:01:42;5.20;1.00
7366;DHT22;3723;52.220;8.792;2024-03-02T03:04:09;5.10;1.00
7366;DHT22;3723;52.220;8.792;2024-03-02T03:06:36;5.10;1.00
7366;DHT22;3723;52.220;8.792;2024-03-02T03:09:03;5.00;1.00
7366;DHT22;3723;52.220;8.792;2024-03-02T03:11:30;5.00;1.00
7366;DHT22;3723;52.220;8.792;2024-03-02T03:13:58;4.90;1.00
7366;DHT22;3723;52.220;8.792;2024-03-02T03:16:26;4.70;1.00
7366;DHT22;3723;52.220;8.792;2024-03-02T03:18:53;4.60;1.00
7366;DHT22;3723;52.220;8.792;2024-03-02T03:21:20;4.50;1.00
7366;DHT22;3723;52.220;8.792;2024-03-02T03:23:47;4.50;1.00
7366;DHT22;3723;52.220;8.792;2024-03-02T03:26:14;4.40;1.00
7366;DHT22;3723;52.220;8.792;2024-03-02T03:28:41;4.40;1.00
7366;DHT22;3723;52.220;8.792;2024-03-02T03:31:09;4.30;1.00
7366;DHT22;3723;52.220;8.792;2024-03-02T03:33:36;4.30;1.00
7366;DHT22;3723;52.220;8.792;2024-03-02T03:36:03;4.40;1.00
7366;DHT22;3723;52.220;8.792;2024-03-02T03:38:30;4.50;1.00
7366;DHT22;3723;52.220;8.792;2024-03-02T03:40:57;4.60;1.00
7366;DHT22;3723;52.220;8.792;2024-03-02T03:43:24;4.60;1.00
7366;DHT22;3723;52.220;8.792;2024-03-02T03:45:51;4.50;1.00
7366;DHT22;3723;52.220;8.792;2024-03-02T03:48:20;4.70;1.00
7366;DHT22;3723;52.220;8.792;2024-03-02T03:50:46;4.80;1.00
7366;DHT22;3723;52.220;8.792;2024-03-02T03:53:13;4.90;1.00
7366;DHT22;3723;52.220;8.792;2024-03-02T03:55:41;5.00;1.00
7366;DHT22;3723;52.220;8.792;2024-03-02T03:58:08;5.10;1.00
7366;DHT22;3723;52.220;8.792;2024-03-02T04:00:35;5.10;1.00
7366;DHT22;3723;52.220;8.792;2024-03-02T04:03:01;5.10;1.00
7366;DHT22;3723;52.220;8.792;2024-03-02T04:05:30;5.10;1.00
7366;DHT22;3723;52.220;8.792;2024-03-02T04:07:56;5.20;1.00
7366;DHT22;3723;52.220;8.792;2024-03-02T04:10:23;5.20;1.00
7366;DHT22;3723;52.220;8.792;2024-03-02T04:12:50;5.20;1.00
7366;DHT22;3723;52.220;8.792;2024-03-02T04:15:17;5.20;1.00
7366;DHT22;3723;52.220;8.792;2024-03-02T04:17:45;5.00;1.00
7366;DHT22;3723;52.220;8.792;2024-03-02T04:20:12;5.00;1.00
7366;DHT22;3723;52.220;8.792;2024-03-02T04:22:40;5.00;1.00
7366;DHT22;3723;52.220;8.792;2024-03-02T04:25:08;5.00;1.00
7366;DHT22;3723;52.220;8.792;2024-03-02T04:27:35;4.90;1.00
7366;DHT22;3723;52.220;8.792;2024-03-02T04:30:03;4.80;1.00
7366;DHT22;3723;52.220;8.792;2024-03-02T04:32:30;4.70;1.00
7366;DHT22;3723;52.220;8.792;2024-03-02T04:34:57;4.60;1.00
7366;DHT22;3723;52.220;8.792;2024-03-02T04:37:24;4.60;1.00
7366;DHT22;3723;52.220;8.792;2024-03-02T04:39:52;4.40;1.00
7366;DHT22;3723;52.220;8.792;2024-03-02T04:42:19;4.30;1.00
7366;DHT22;3723;52.220;8.792;2024-03-02T04:44:46;4.30;1.00
7366;DHT22;3723;52.220;8.792;2024-03-02T04:47:12;4.30;1.00
7366;DHT22;3723;52.220;8.792;2024-03-02T04:49:39;4.40;1.00
7366;DHT22;3723;52.220;8.792;2024-03-02T04:52:06;4.40;1.00
7366;DHT22;3723;52.220;8.792;2024-03-02T04:54:33;4.40;1.00
7366;DHT22;3723;52.220;8.792;2024-03-02T04:57:22;4.30;1.00
7366;DHT22;3723;52.220;8.792;2024-03-02T04:59:49;4.20;1.00
7366;DHT22;3723;52.220;8.792;2024-03-02T05:02:16;4.20;1.00
7366;DHT22;3723;52.220;8.792;2024-03-02T05:04:43;4.10;1.00
7366;DHT22;3723;52.220;8.792;2024-03-02T05:07:12;4.20;1.00
7366;DHT22;3723;52.220;8.792;2024-03-02T05:09:39;4.20;1.00
7366;DHT22;3723;52.220;8.792;2024-03-02T05:12:07;4.20;1.00
7366;DHT22;3723;52.220;8.792;2024-03-02T05:14:50;4.10;1.00
7366;DHT22;3723;52.220;8.792;2024-03-02T05:17:17;4.00;1.00
7366;DHT22;3723;52.220;8.792;2024-03-02T05:19:43;4.10;1.00
7366;DHT22;3723;52.220;8.792;2024-03-02T05:22:10;4.10;1.00
7366;DHT22;3723;52.220;8.792;2024-03-02T05:24:37;4.10;1.00
7366;DHT22;3723;52.220;8.792;2024-03-02T05:27:06;4.00;1.00
7366;DHT22;3723;52.220;8.792;2024-03-02T05:29:34;4.00;1.00
7366;DHT22;3723;52.220;8.792;2024-03-02T05:32:02;4.00;1.00
7366;DHT22;3723;52.220;8.792;2024-03-02T05:34:29;4.00;1.00
7366;DHT22;3723;52.220;8.792;2024-03-02T05:36:56;4.00;1.00
7366;DHT22;3723;52.220;8.792;2024-03-02T05:39:24;3.90;1.00
7366;DHT22;3723;52.220;8.792;2024-03-02T05:41:51;3.80;1.00
7366;DHT22;3723;52.220;8.792;2024-03-02T05:44:17;3.70;1.00
7366;DHT22;3723;52.220;8.792;2024-03-02T05:46:45;3.60;1.00
7366;DHT22;3723;52.220;8.792;2024-03-02T05:49:13;3.50;1.00
7366;DHT22;3723;52.220;8.792;2024-03-02T05:51:40;3.40;1.00
7366;DHT22;3723;52.220;8.792;2024-03-02T05:54:07;3.30;1.00
7366;DHT22;3723;52.220;8.792;2024-03-02T05:56:35;3.20;1.00
7366;DHT22;3723;52.220;8.792;2024-03-02T05:59:01;3.20;1.00
7366;DHT22;3723;52.220;8.792;2024-03-02T06:01:38;3.20;1.00
7366;DHT22;3723;52.220;8.792;2024-03-02T06:04:04;3.20;1.00
7366;DHT22;3723;52.220;8.792;2024-03-02T06:06:33;3.30;1.00
7366;DHT22;3723;52.220;8.792;2024-03-02T06:09:00;3.30;1.00
7366;DHT22;3723;52.220;8.792;2024-03-02T06:11:29;3.30;1.00
7366;DHT22;3723;52.220;8.792;2024-03-02T06:13:55;3.40;1.00
7366;DHT22;3723;52.220;8.792;2024-03-02T06:16:22;3.40;1.00
7366;DHT22;3723;52.220;8.792;2024-03-02T06:18:49;3.50;24.20
7366;DHT22;3723;52.220;8.792;2024-03-02T06:21:16;3.60;80.80
7366;DHT22;3723;52.220;8.792;2024-03-02T06:23:45;3.80;99.90
7366;DHT22;3723;52.220;8.792;2024-03-02T06:26:12;3.80;99.90
7366;DHT22;3723;52.220;8.792;2024-03-02T06:28:39;3.90;99.90
7366;DHT22;3723;52.220;8.792;2024-03-02T06:31:06;4.10;99.90
7366;DHT22;3723;52.220;8.792;2024-03-02T06:33:33;4.30;99.90
7366;DHT22;3723;52.220;8.792;2024-03-02T06:36:00;4.40;99.90
7366;DHT22;3723;52.220;8.792;2024-03-02T06:38:26;4.50;99.90
7366;DHT22;3723;52.220;8.792;2024-03-02T06:40:55;4.60;99.90
7366;DHT22;3723;52.220;8.792;2024-03-02T06:43:24;4.70;99.90
7366;DHT22;3723;52.220;8.792;2024-03-02T06:45:51;4.70;99.90
7366;DHT22;3723;52.220;8.792;2024-03-02T06:48:18;4.90;99.90
7366;DHT22;3723;52.220;8.792;2024-03-02T06:50:45;5.10;99.90
7366;DHT22;3723;52.220;8.792;2024-03-02T06:53:13;5.30;99.90
7366;DHT22;3723;52.220;8.792;2024-03-02T06:55:43;5.50;99.90
7366;DHT22;3723;52.220;8.792;2024-03-02T06:58:11;5.70;99.90
7366;DHT22;3723;52.220;8.792;2024-03-02T07:00:38;5.80;99.90
7366;DHT22;3723;52.220;8.792;2024-03-02T07:03:06;6.00;99.90
7366;DHT22;3723;52.220;8.792;2024-03-02T07:05:32;6.30;99.90
7366;DHT22;3723;52.220;8.792;2024-03-02T07:07:59;6.60;99.90
7366;DHT22;3723;52.220;8.792;2024-03-02T07:10:27;6.80;99.90
7366;DHT22;3723;52.220;8.792;2024-03-02T07:12:53;7.00;1.00
7366;DHT22;3723;52.220;8.792;2024-03-02T07:15:22;7.10;1.00
7366;DHT22;3723;52.220;8.792;2024-03-02T07:18:03;7.10;1.00
7366;DHT22;3723;52.220;8.792;2024-03-02T07:20:29;7.00;1.00
7366;DHT22;3723;52.220;8.792;2024-03-02T07:22:56;6.90;1.00
7366;DHT22;3723;52.220;8.792;2024-03-02T07:25:23;6.80;1.00
7366;DHT22;3723;52.220;8.792;2024-03-02T07:27:50;6.90;1.00
7366;DHT22;3723;52.220;8.792;2024-03-02T07:30:18;6.90;1.00
7366;DHT22;3723;52.220;8.792;2024-03-02T07:32:46;6.90;1.00
7366;DHT22;3723;52.220;8.792;2024-03-02T07:35:16;6.80;1.00
7366;DHT22;3723;52.220;8.792;2024-03-02T07:37:44;6.90;1.00
7366;DHT22;3723;52.220;8.792;2024-03-02T07:40:12;6.90;1.00
7366;DHT22;3723;52.220;8.792;2024-03-02T07:42:40;7.00;1.00
7366;DHT22;3723;52.220;8.792;2024-03-02T07:45:07;7.00;1.00
7366;DHT22;3723;52.220;8.792;2024-03-02T07:47:34;7.10;1.00
7366;DHT22;3723;52.220;8.792;2024-03-02T07:50:03;7.20;1.00
7366;DHT22;3723;52.220;8.792;2024-03-02T07:52:31;7.20;1.00
7366;DHT22;3723;52.220;8.792;2024-03-02T07:54:58;7.30;1.00
7366;DHT22;3723;52.220;8.792;2024-03-02T07:57:25;7.40;1.00
7366;DHT22;3723;52.220;8.792;2024-03-02T07:59:53;7.50;1.00
7366;DHT22;3723;52.220;8.792;2024-03-02T08:02:20;7.60;1.00
7366;DHT22;3723;52.220;8.792;2024-03-02T08:04:47;7.80;1.00
7366;DHT22;3723;52.220;8.792;2024-03-02T08:07:15;8.00;1.00
7366;DHT22;3723;52.220;8.792;2024-03-02T08:09:42;8.30;1.00
7366;DHT22;3723;52.220;8.792;2024-03-02T08:12:09;8.70;1.00
7366;DHT22;3723;52.220;8.792;2024-03-02T08:14:36;9.20;1.00
7366;DHT22;3723;52.220;8.792;2024-03-02T08:17:03;9.80;1.00
7366;DHT22;3723;52.220;8.792;2024-03-02T08:19:52;10.30;99.90
7366;DHT22;3723;52.220;8.792;2024-03-02T08:22:21;10.70;99.90
7366;DHT22;3723;52.220;8.792;2024-03-02T08:24:48;11.00;99.90
7366;DHT22;3723;52.220;8.792;2024-03-02T08:27:15;11.20;99.90
7366;DHT22;3723;52.220;8.792;2024-03-02T08:29:42;11.50;99.90
7366;DHT22;3723;52.220;8.792;2024-03-02T08:32:09;11.60;99.90
7366;DHT22;3723;52.220;8.792;2024-03-02T08:34:35;11.60;99.90
7366;DHT22;3723;52.220;8.792;2024-03-02T08:37:03;11.40;99.90
7366;DHT22;3723;52.220;8.792;2024-03-02T08:39:31;11.10;99.90
7366;DHT22;3723;52.220;8.792;2024-03-02T08:41:58;11.10;99.90
7366;DHT22;3723;52.220;8.792;2024-03-02T08:44:25;11.20;99.90
7366;DHT22;3723;52.220;8.792;2024-03-02T08:46:57;11.30;99.90
7366;DHT22;3723;52.220;8.792;2024-03-02T08:49:24;11.40;99.90
7366;DHT22;3723;52.220;8.792;2024-03-02T08:51:50;11.50;99.90
7366;DHT22;3723;52.220;8.792;2024-03-02T08:54:20;11.50;99.90
7366;DHT22;3723;52.220;8.792;2024-03-02T08:56:48;11.80;99.90
7366;DHT22;3723;52.220;8.792;2024-03-02T08:59:15;12.20;99.90
7366;DHT22;3723;52.220;8.792;2024-03-02T09:01:42;12.60;99.90
7366;DHT22;3723;52.220;8.792;2024-03-02T09:04:09;13.10;99.90
7366;DHT22;3723;52.220;8.792;2024-03-02T09:06:36;13.40;99.90
7366;DHT22;3723;52.220;8.792;2024-03-02T09:09:03;13.70;99.90
7366;DHT22;3723;52.220;8.792;2024-03-02T09:11:30;13.70;99.90
7366;DHT22;3723;52.220;8.792;2024-03-02T09:13:59;14.00;99.90
7366;DHT22;3723;52.220;8.792;2024-03-02T09:16:26;14.40;99.90
7366;DHT22;3723;52.220;8.792;2024-03-02T09:18:56;14.50;99.90
7366;DHT22;3723;52.220;8.792;2024-03-02T09:21:23;14.70;99.90
7366;DHT22;3723;52.220;8.792;2024-03-02T09:23:51;15.00;99.90
7366;DHT22;3723;52.220;8.792;2024-03-02T09:26:19;15.10;99.90
7366;DHT22;3723;52.220;8.792;2024-03-02T09:28:46;15.20;99.90
7366;DHT22;3723;52.220;8.792;2024-03-02T09:31:14;15.50;99.90
7366;DHT22;3723;52.220;8.792;2024-03-02T09:33:41;15.30;99.90
7366;DHT22;3723;52.220;8.792;2024-03-02T09:36:19;15.00;99.90
7366;DHT22;3723;52.220;8.792;2024-03-02T09:38:46;14.90;99.90
7366;DHT22;3723;52.220;8.792;2024-03-02T09:41:14;14.90;99.90
7366;DHT22;3723;52.220;8.792;2024-03-02T09:43:41;14.90;99.90
7366;DHT22;3723;52.220;8.792;2024-03-02T09:46:09;14.90;99.90
7366;DHT22;3723;52.220;8.792;2024-03-02T09:48:38;15.20;99.90
7366;DHT22;3723;52.220;8.792;2024-03-02T09:51:06;15.00;99.90
7366;DHT22;3723;52.220;8.792;2024-03-02T09:53:33;14.70;99.90
7366;DHT22;3723;52.220;8.792;2024-03-02T09:56:01;14.70;99.90
7366;DHT22;3723;52.220;8.792;2024-03-02T09:58:28;14.80;99.90
7366;DHT22;3723;52.220;8.792;2024-03-02T10:00:56;14.90;99.90
7366;DHT22;3723;52.220;8.792;2024-03-02T10:03:23;15.20;99.90
7366;DHT22;3723;52.220;8.792;2024-03-02T10:05:52;15.60;99.90
7366;DHT22;3723;52.220;8.792;2024-03-02T10:08:19;15.80;99.90
7366;DHT22;3723;52.220;8.792;2024-03-02T10:10:46;15.80;99.90
7366;DHT22;3723;52.220;8.792;2024-03-02T10:13:14;15.80;99.90
7366;DHT22;3723;52.220;8.792;2024-03-02T10:15:42;16.20;99.90
7366;DHT22;3723;52.220;8.792;2024-03-02T10:18:09;16.40;99.90
7366;DHT22;3723;52.220;8.792;2024-03-02T10:20:38;16.80;99.90
7366;DHT22;3723;52.220;8.792;2024-03-02T10:23:13;17.30;99.90
7366;DHT22;3723;52.220;8.792;2024-03-02T10:25:41;17.50;99.90
7366;DHT22;3723;52.220;8.792;2024-03-02T10:28:08;17.40;99.90
7366;DHT22;3723;52.220;8.792;2024-03-02T10:30:35;17.10;99.90
7366;DHT22;3723;52.220;8.792;2024-03-02T10:33:02;17.00;99.90
7366;DHT22;3723;52.220;8.792;2024-03-02T10:35:29;17.20;99.90
7366;DHT22;3723;52.220;8.792;2024-03-02T10:37:59;17.20;99.90
7366;DHT22;3723;52.220;8.792;2024-03-02T10:40:27;17.00;99.90
7366;DHT22;3723;52.220;8.792;2024-03-02T10:42:55;16.90;99.90
7366;DHT22;3723;52.220;8.792;2024-03-02T10:45:27;16.70;99.90
7366;DHT22;3723;52.220;8.792;2024-03-02T10:47:54;16.70;99.90
7366;DHT22;3723;52.220;8.792;2024-03-02T10:50:21;17.00;99.90
7366;DHT22;3723;52.220;8.792;2024-03-02T10:52:48;17.30;99.90
7366;DHT22;3723;52.220;8.792;2024-03-02T10:55:15;17.60;99.90
7366;DHT22;3723;52.220;8.792;2024-03-02T10:57:50;17.60;99.90
7366;DHT22;3723;52.220;8.792;2024-03-02T11:00:19;17.70;99.90
7366;DHT22;3723;52.220;8.792;2024-03-02T11:02:51;17.80;99.90
7366;DHT22;3723;52.220;8.792;2024-03-02T11:05:26;18.00;99.90
7366;DHT22;3723;52.220;8.792;2024-03-02T11:07:57;18.10;99.90
7366;DHT22;3723;52.220;8.792;2024-03-02T11:10:28;18.30;99.90
7366;DHT22;3723;52.220;8.792;2024-03-02T11:13:02;18.40;99.90
7366;DHT22;3723;52.220;8.792;2024-03-02T11:15:30;18.20;99.90
7366;DHT22;3723;52.220;8.792;2024-03-02T11:17:58;18.40;99.90
7366;DHT22;3723;52.220;8.792;2024-03-02T11:20:26;18.30;99.90
7366;DHT22;3723;52.220;8.792;2024-03-02T11:22:54;18.00;99.90
7366;DHT22;3723;52.220;8.792;2024-03-02T11:25:24;18.10;99.90
7366;DHT22;3723;52.220;8.792;2024-03-02T11:28:06;18.30;99.90
7366;DHT22;3723;52.220;8.792;2024-03-02T11:30:51;18.80;99.90
7366;DHT22;3723;52.220;8.792;2024-03-02T11:33:25;18.90;99.90
7366;DHT22;3723;52.220;8.792;2024-03-02T11:35:57;18.60;99.90
7366;DHT22;3723;52.220;8.792;2024-03-02T11:38:28;18.50;99.90
7366;DHT22;3723;52.220;8.792;2024-03-02T11:40:56;18.50;99.90
7366;DHT22;3723;52.220;8.792;2024-03-02T11:43:25;18.20;99.90
7366;DHT22;3723;52.220;8.792;2024-03-02T11:45:57;18.30;99.90
7366;DHT22;3723;52.220;8.792;2024-03-02T11:48:25;18.30;99.90
7366;DHT22;3723;52.220;8.792;2024-03-02T11:50:52;18.30;99.90
7366;DHT22;3723;52.220;8.792;2024-03-02T11:53:20;18.40;99.90
7366;DHT22;3723;52.220;8.792;2024-03-02T11:55:47;18.50;99.90
7366;DHT22;3723;52.220;8.792;2024-03-02T11:58:15;18.60;99.90
7366;DHT22;3723;52.220;8.792;2024-03-02T12:00:46;18.90;99.90
7366;DHT22;3723;52.220;8.792;2024-03-02T12:03:14;19.40;99.90
7366;DHT22;3723;52.220;8.792;2024-03-02T12:05:42;19.80;99.90
7366;DHT22;3723;52.220;8.792;2024-03-02T12:08:10;20.20;99.90
7366;DHT22;3723;52.220;8.792;2024-03-02T12:10:38;20.50;99.90
7366;DHT22;3723;52.220;8.792;2024-03-02T12:13:10;20.20;99.90
7366;DHT22;3723;52.220;8.792;2024-03-02T12:15:38;19.60;99.90
7366;DHT22;3723;52.220;8.792;2024-03-02T12:18:07;19.00;99.90
7366;DHT22;3723;52.220;8.792;2024-03-02T12:20:34;18.70;99.90
7366;DHT22;3723;52.220;8.792;2024-03-02T12:23:02;18.40;99.90
7366;DHT22;3723;52.220;8.792;2024-03-02T12:25:30;18.60;99.90
7366;DHT22;3723;52.220;8.792;2024-03-02T12:28:01;18.90;99.90
7366;DHT22;3723;52.220;8.792;2024-03-02T12:30:30;19.00;99.90
7366;DHT22;3723;52.220;8.792;2024-03-02T12:33:00;19.00;99.90
7366;DHT22;3723;52.220;8.792;2024-03-02T12:35:29;19.00;99.90
7366;DHT22;3723;52.220;8.792;2024-03-02T12:37:56;19.30;99.90
7366;DHT22;3723;52.220;8.792;2024-03-02T12:40:23;19.40;99.90
7366;DHT22;3723;52.220;8.792;2024-03-02T12:42:51;19.60;99.90
7366;DHT22;3723;52.220;8.792;2024-03-02T12:45:18;19.80;99.90
7366;DHT22;3723;52.220;8.792;2024-03-02T12:47:49;19.80;99.90
7366;DHT22;3723;52.220;8.792;2024-03-02T12:50:17;19.30;99.90
7366;DHT22;3723;52.220;8.792;2024-03-02T12:52:51;19.20;99.90
7366;DHT22;3723;52.220;8.792;2024-03-02T12:55:19;19.20;99.90
7366;DHT22;3723;52.220;8.792;2024-03-02T12:57:46;19.10;99.90
7366;DHT22;3723;52.220;8.792;2024-03-02T13:00:13;19.10;99.90
7366;DHT22;3723;52.220;8.792;2024-03-02T13:02:41;19.30;99.90
7366;DHT22;3723;52.220;8.792;2024-03-02T13:05:11;19.40;99.90
7366;DHT22;3723;52.220;8.792;2024-03-02T13:07:39;19.10;99.90
7366;DHT22;3723;52.220;8.792;2024-03-02T13:10:08;19.10;99.90
7366;DHT22;3723;52.220;8.792;2024-03-02T13:12:35;19.20;99.90
7366;DHT22;3723;52.220;8.792;2024-03-02T13:15:03;19.30;99.90
7366;DHT22;3723;52.220;8.792;2024-03-02T13:17:31;19.50;99.90
7366;DHT22;3723;52.220;8.792;2024-03-02T13:20:00;19.40;99.90
7366;DHT22;3723;52.220;8.792;2024-03-02T13:22:29;19.20;99.90
7366;DHT22;3723;52.220;8.792;2024-03-02T13:24:56;19.20;99.90
7366;DHT22;3723;52.220;8.792;2024-03-02T13:27:25;19.40;99.90
7366;DHT22;3723;52.220;8.792;2024-03-02T13:29:52;19.60;99.90
7366;DHT22;3723;52.220;8.792;2024-03-02T13:32:19;19.80;99.90
7366;DHT22;3723;52.220;8.792;2024-03-02T13:34:49;19.80;99.90
7366;DHT22;3723;52.220;8.792;2024-03-02T13:37:17;19.90;99.90
7366;DHT22;3723;52.220;8.792;2024-03-02T13:39:44;19.80;99.90
7366;DHT22;3723;52.220;8.792;2024-03-02T13:42:13;19.80;99.90
7366;DHT22;3723;52.220;8.792;2024-03-02T13:44:43;19.70;99.90
7366;DHT22;3723;52.220;8.792;2024-03-02T13:47:11;19.50;99.90
7366;DHT22;3723;52.220;8.792;2024-03-02T13:49:38;19.30;99.90
7366;DHT22;3723;52.220;8.792;2024-03-02T13:52:09;19.10;99.90
7366;DHT22;3723;52.220;8.792;2024-03-02T13:54:40;19.30;99.90
7366;DHT22;3723;52.220;8.792;2024-03-02T13:57:07;19.20;99.90
7366;DHT22;3723;52.220;8.792;2024-03-02T13:59:35;19.00;99.90
7366;DHT22;3723;52.220;8.792;2024-03-02T14:02:04;18.40;99.90
7366;DHT22;3723;52.220;8.792;2024-03-02T14:04:31;18.00;99.90
7366;DHT22;3723;52.220;8.792;2024-03-02T14:06:59;18.10;99.90
7366;DHT22;3723;52.220;8.792;2024-03-02T14:09:25;18.00;99.90
7366;DHT22;3723;52.220;8.792;2024-03-02T14:11:52;17.90;99.90
7366;DHT22;3723;52.220;8.792;2024-03-02T14:14:29;18.10;99.90
7366;DHT22;3723;52.220;8.792;2024-03-02T14:16:56;18.00;99.90
7366;DHT22;3723;52.220;8.792;2024-03-02T14:19:27;18.10;99.90
7366;DHT22;3723;52.220;8.792;2024-03-02T14:21:55;18.50;99.90
7366;DHT22;3723;52.220;8.792;2024-03-02T14:26:51;18.80;99.90
7366;DHT22;3723;52.220;8.792;2024-03-02T14:29:21;18.70;99.90
7366;DHT22;3723;52.220;8.792;2024-03-02T14:31:48;18.60;99.90
7366;DHT22;3723;52.220;8.792;2024-03-02T14:34:21;18.50;99.90
7366;DHT22;3723;52.220;8.792;2024-03-02T14:36:56;18.50;99.90
7366;DHT22;3723;52.220;8.792;2024-03-02T14:39:23;18.50;99.90
7366;DHT22;3723;52.220;8.792;2024-03-02T14:41:50;18.60;99.90
7366;DHT22;3723;52.220;8.792;2024-03-02T14:44:21;18.70;99.90
7366;DHT22;3723;52.220;8.792;2024-03-02T14:47:03;18.70;99.90
7366;DHT22;3723;52.220;8.792;2024-03-02T14:50:00;18.60;99.90
7366;DHT22;3723;52.220;8.792;2024-03-02T14:52:28;18.60;99.90
7366;DHT22;3723;52.220;8.792;2024-03-02T14:54:57;18.80;99.90
7366;DHT22;3723;52.220;8.792;2024-03-02T14:57:25;18.90;99.90
7366;DHT22;3723;52.220;8.792;2024-03-02T14:59:51;19.00;99.90
7366;DHT22;3723;52.220;8.792;2024-03-02T15:02:20;19.10;99.90
7366;DHT22;3723;52.220;8.792;2024-03-02T15:04:47;19.20;99.90
7366;DHT22;3723;52.220;8.792;2024-03-02T15:07:14;19.30;99.90
7366;DHT22;3723;52.220;8.792;2024-03-02T15:09:43;19.20;99.90
7366;DHT22;3723;52.220;8.792;2024-03-02T15:12:11;19.30;99.90
7366;DHT22;3723;52.220;8.792;2024-03-02T15:14:40;18.90;99.90
7366;DHT22;3723;52.220;8.792;2024-03-02T15:17:12;18.70;99.90
7366;DHT22;3723;52.220;8.792;2024-03-02T15:19:41;18.70;99.90
7366;DHT22;3723;52.220;8.792;2024-03-02T15:22:08;18.60;99.90
7366;DHT22;3723;52.220;8.792;2024-03-02T15:24:35;18.30;99.90
7366;DHT22;3723;52.220;8.792;2024-03-02T15:27:04;18.30;99.90
7366;DHT22;3723;52.220;8.792;2024-03-02T15:29:33;18.30;99.90
7366;DHT22;3723;52.220;8.792;2024-03-02T15:32:01;18.10;99.90
7366;DHT22;3723;52.220;8.792;2024-03-02T15:34:30;18.00;99.90
7366;DHT22;3723;52.220;8.792;2024-03-02T15:36:58;18.00;99.90
7366;DHT22;3723;52.220;8.792;2024-03-02T15:39:25;17.90;99.90
7366;DHT22;3723;52.220;8.792;2024-03-02T15:41:52;18.00;99.90
7366;DHT22;3723;52.220;8.792;2024-03-02T15:44:20;18.10;99.90
7366;DHT22;3723;52.220;8.792;2024-03-02T15:46:47;18.00;99.90
7366;DHT22;3723;52.220;8.792;2024-03-02T15:49:13;17.80;99.90
7366;DHT22;3723;52.220;8.792;2024-03-02T15:51:40;17.40;99.90
7366;DHT22;3723;52.220;8.792;2024-03-02T15:54:09;17.20;99.90
7366;DHT22;3723;52.220;8.792;2024-03-02T15:56:36;16.90;99.90
7366;DHT22;3723;52.220;8.792;2024-03-02T15:59:03;16.60;99.90
7366;DHT22;3723;52.220;8.792;2024-03-02T16:01:32;16.50;99.90
7366;DHT22;3723;52.220;8.792;2024-03-02T16:03:59;16.40;99.90
7366;DHT22;3723;52.220;8.792;2024-03-02T16:06:26;16.30;99.90
7366;DHT22;3723;52.220;8.792;2024-03-02T16:08:53;15.90;99.90
7366;DHT22;3723;52.220;8.792;2024-03-02T16:11:21;15.30;99.90
7366;DHT22;3723;52.220;8.792;2024-03-02T16:13:48;14.80;99.90
7366;DHT22;3723;52.220;8.792;2024-03-02T16:16:15;14.50;99.90
7366;DHT22;3723;52.220;8.792;2024-03-02T16:18:43;14.10;99.90
7366;DHT22;3723;52.220;8.792;2024-03-02T16:21:41;13.80;99.90
7366;DHT22;3723;52.220;8.792;2024-03-02T16:24:09;13.50;99.90
7366;DHT22;3723;52.220;8.792;2024-03-02T16:32:06;12.90;99.90